Time;durP1;ratioP1;P1;durP2;ratioP2;P2;SDS_P1;SDS_P2;PMS_P1;PMS_P2;Temp;Humidity;BMP_temperature;BMP_pressure;BME280_temperature;BME280_humidity;BME280_pressure;Samples;Min_cycle;Max_cycle;Signal;HPM_P1;HPM_P2
2021/07/28 00:01:30;;;;;;;5.73;4.87;;;22.90;99.90;;;;;;4919812;29;20485;-73
2021/07/28 00:03:56;;;;;;;5.73;4.70;;;22.90;99.90;;;;;;4919739;29;20469;-73
2021/07/28 00:06:23;;;;;;;5.77;4.63;;;22.80;99.90;;;;;;4919049;29;20493;-73
2021/07/28 00:08:51;;;;;;;5.50;5.00;;;22.80;99.90;;;;;;4919448;29;20469;-74
2021/07/28 00:11:19;;;;;;;6.13;5.10;;;22.80;99.90;;;;;;4919543;29;20461;-73
2021/07/28 00:13:46;;;;;;;6.77;4.87;;;22.70;99.90;;;;;;4919403;29;20504;-73
2021/07/28 00:16:15;;;;;;;5.47;4.97;;;22.70;99.90;;;;;;4919569;29;20476;-73
2021/07/28 00:18:50;;;;;;;7.00;5.47;;;22.70;99.90;;;;;;4919345;29;20457;-72
2021/07/28 00:24:04;;;;;;;7.07;4.70;;;22.60;99.90;;;;;;4919366;29;20437;-73
2021/07/28 00:26:31;;;;;;;5.87;5.33;;;22.50;99.90;;;;;;4918992;29;20500;-73
2021/07/28 00:28:58;;;;;;;5.53;5.03;;;22.40;99.90;;;;;;4918853;29;20844;-73
2021/07/28 00:31:26;;;;;;;5.03;4.47;;;22.40;99.90;;;;;;4919083;29;20562;-73
2021/07/28 00:33:55;;;;;;;5.90;5.40;;;22.30;99.90;;;;;;4919221;29;20553;-73
2021/07/28 00:36:21;;;;;;;9.23;4.97;;;22.30;99.90;;;;;;4918977;29;20462;-73
2021/07/28 00:38:48;;;;;;;6.63;5.10;;;22.30;99.90;;;;;;4919238;29;20487;-74
2021/07/28 00:41:15;;;;;;;5.90;5.20;;;22.30;99.90;;;;;;4918977;29;20545;-74
2021/07/28 00:43:42;;;;;;;5.20;4.70;;;22.20;99.90;;;;;;4919093;29;20465;-73
2021/07/28 00:46:09;;;;;;;5.20;4.70;;;22.20;99.90;;;;;;4918830;29;20485;-73
2021/07/28 00:48:37;;;;;;;5.53;4.70;;;22.20;99.90;;;;;;4919042;29;20465;-73
2021/07/28 00:51:08;;;;;;;8.60;5.40;;;22.10;99.90;;;;;;4918436;29;20469;-73
2021/07/28 00:53:35;;;;;;;5.27;4.77;;;22.10;99.90;;;;;;4918936;29;20461;-73
2021/07/28 00:56:05;;;;;;;5.23;4.83;;;22.00;99.90;;;;;;4918599;29;20480;-73
2021/07/28 00:58:32;;;;;;;5.53;4.43;;;22.00;99.90;;;;;;4919184;29;20472;-72
2021/07/28 01:01:02;;;;;;;5.47;5.07;;;22.00;99.90;;;;;;4919055;29;20465;-73
2021/07/28 01:03:29;;;;;;;5.50;5.00;;;21.90;99.90;;;;;;4919342;29;20559;-73
2021/07/28 01:05:58;;;;;;;5.90;5.40;;;21.90;99.90;;;;;;4920418;29;20826;-73
2021/07/28 01:08:25;;;;;;;5.73;4.90;;;21.90;99.90;;;;;;4919516;29;20481;-73
2021/07/28 01:10:52;;;;;;;5.43;4.90;;;21.90;99.90;;;;;;4918598;29;20899;-73
2021/07/28 01:13:26;;;;;;;5.30;4.80;;;21.90;99.90;;;;;;4918439;29;20984;-73
2021/07/28 01:15:55;;;;;;;7.90;4.83;;;21.80;99.90;;;;;;4919074;29;20856;-73
2021/07/28 01:18:23;;;;;;;5.73;5.13;;;21.80;99.90;;;;;;4919369;29;20461;-73
2021/07/28 01:20:49;;;;;;;5.57;5.07;;;21.80;99.90;;;;;;4921806;29;20935;-73
2021/07/28 01:23:21;;;;;;;6.03;5.17;;;21.80;99.90;;;;;;4918974;29;20469;-73
2021/07/28 01:25:49;;;;;;;5.47;4.97;;;21.80;99.90;;;;;;4918908;29;20504;-73
2021/07/28 01:28:16;;;;;;;5.90;5.10;;;21.70;99.90;;;;;;4918579;29;20937;-73
2021/07/28 01:30:43;;;;;;;6.50;5.13;;;21.70;99.90;;;;;;4918818;29;20472;-72
2021/07/28 01:33:12;;;;;;;6.47;5.30;;;21.60;99.90;;;;;;4918902;29;20512;-73
2021/07/28 01:35:39;;;;;;;5.73;5.20;;;21.60;99.90;;;;;;4918154;29;20520;-73
2021/07/28 01:38:06;;;;;;;7.23;4.57;;;21.60;99.90;;;;;;4918675;29;20462;-73
2021/07/28 01:40:38;;;;;;;5.90;5.40;;;21.50;99.90;;;;;;4918817;29;20822;-74
2021/07/28 01:43:16;;;;;;;5.87;4.93;;;21.50;99.90;;;;;;4922224;29;20852;-73
2021/07/28 01:45:43;;;;;;;5.27;4.77;;;21.50;99.90;;;;;;4922839;29;20795;-73
2021/07/28 01:48:14;;;;;;;6.23;5.20;;;21.50;99.90;;;;;;4921932;29;20469;-73
2021/07/28 01:50:40;;;;;;;7.47;4.97;;;21.40;99.90;;;;;;4921937;29;20858;-73
2021/07/28 01:53:07;;;;;;;10.47;5.63;;;21.50;99.90;;;;;;4922142;29;20481;-74
2021/07/28 01:55:34;;;;;;;5.40;4.90;;;21.40;99.90;;;;;;4921388;29;20469;-74
2021/07/28 01:58:02;;;;;;;8.20;5.00;;;21.40;99.90;;;;;;4921926;29;20468;-74
2021/07/28 02:00:29;;;;;;;7.20;5.30;;;21.40;99.90;;;;;;4921929;29;20854;-73
2021/07/28 02:03:02;;;;;;;6.10;5.50;;;21.40;99.90;;;;;;4921768;29;20465;-73
2021/07/28 02:05:29;;;;;;;7.63;5.40;;;21.40;99.90;;;;;;4921748;29;20446;-74
2021/07/28 02:07:57;;;;;;;5.70;5.10;;;21.40;99.90;;;;;;4921536;29;20461;-74
2021/07/28 02:10:24;;;;;;;4.97;4.47;;;21.40;99.90;;;;;;4921477;29;20512;-73
2021/07/28 02:12:51;;;;;;;6.10;4.80;;;21.40;99.90;;;;;;4921580;29;20497;-73
2021/07/28 02:15:23;;;;;;;5.70;5.20;;;21.30;99.90;;;;;;4922034;29;20469;-73
2021/07/28 02:17:49;;;;;;;5.50;5.00;;;21.30;99.90;;;;;;4921486;29;20882;-74
2021/07/28 02:20:19;;;;;;;6.83;5.20;;;21.30;99.90;;;;;;4921593;29;20472;-75
2021/07/28 02:22:46;;;;;;;5.60;5.03;;;21.30;99.90;;;;;;4921078;29;20468;-74
2021/07/28 02:25:13;;;;;;;6.27;4.97;;;21.40;99.90;;;;;;4921425;29;20465;-73
2021/07/28 02:27:40;;;;;;;5.13;4.70;;;21.30;99.90;;;;;;4921221;29;20485;-73
2021/07/28 02:30:09;;;;;;;6.43;5.70;;;21.30;99.90;;;;;;4921487;29;20791;-73
2021/07/28 02:32:37;;;;;;;5.80;5.30;;;21.40;99.90;;;;;;4920909;29;20470;-73
2021/07/28 02:35:05;;;;;;;5.40;4.90;;;21.40;99.90;;;;;;4925803;29;20473;-73
2021/07/28 02:37:32;;;;;;;6.13;5.27;;;21.40;99.90;;;;;;4930403;29;20473;-73
2021/07/28 02:40:00;;;;;;;7.90;5.50;;;21.40;99.90;;;;;;4924895;29;20472;-74
2021/07/28 02:42:26;;;;;;;5.33;4.83;;;21.40;99.90;;;;;;4921327;29;20471;-72
2021/07/28 02:44:53;;;;;;;6.07;5.47;;;21.40;99.90;;;;;;4921092;29;20465;-71
2021/07/28 02:47:20;;;;;;;6.10;5.10;;;21.40;99.90;;;;;;4921263;29;20489;-72
2021/07/28 02:49:48;;;;;;;6.00;5.40;;;21.30;99.90;;;;;;4920934;29;20476;-70
2021/07/28 02:52:15;;;;;;;6.10;5.60;;;21.40;99.90;;;;;;4920493;29;20470;-71
2021/07/28 02:54:42;;;;;;;6.27;5.67;;;21.40;99.90;;;;;;4920653;29;20938;-72
2021/07/28 02:57:08;;;;;;;5.67;5.17;;;21.30;99.90;;;;;;4920793;29;20461;-72
2021/07/28 02:59:35;;;;;;;6.17;4.57;;;21.30;99.90;;;;;;4920498;29;20945;-72
2021/07/28 03:02:05;;;;;;;5.67;5.17;;;21.30;99.90;;;;;;4920766;29;21005;-71
2021/07/28 03:04:34;;;;;;;5.50;5.00;;;21.30;99.90;;;;;;4921019;29;20445;-72
2021/07/28 03:07:02;;;;;;;6.10;5.50;;;21.30;99.90;;;;;;4920552;29;20496;-71
2021/07/28 03:09:29;;;;;;;5.67;4.97;;;21.20;99.90;;;;;;4920915;29;20465;-71
2021/07/28 03:11:55;;;;;;;6.10;5.17;;;21.30;99.90;;;;;;4920217;29;20924;-71
2021/07/28 03:14:22;;;;;;;5.83;5.23;;;21.20;99.90;;;;;;4921315;29;20789;-72
2021/07/28 03:16:49;;;;;;;5.80;5.20;;;21.30;99.90;;;;;;4922497;29;20543;-72
2021/07/28 03:19:15;;;;;;;5.77;5.20;;;21.30;99.90;;;;;;4924086;29;20488;-72
2021/07/28 03:21:42;;;;;;;9.83;5.60;;;21.30;99.90;;;;;;4922221;29;20461;-72
2021/07/28 03:24:10;;;;;;;5.67;5.10;;;21.30;99.90;;;;;;4920822;29;20501;-72
2021/07/28 03:26:37;;;;;;;5.37;4.87;;;21.30;99.90;;;;;;4920864;29;20525;-72
2021/07/28 03:29:05;;;;;;;5.97;5.37;;;21.30;99.90;;;;;;4920635;29;20466;-72
2021/07/28 03:31:32;;;;;;;5.43;4.93;;;21.30;99.90;;;;;;4920657;29;20470;-72
2021/07/28 03:33:58;;;;;;;5.30;4.80;;;21.40;99.90;;;;;;4920824;29;20465;-72
2021/07/28 03:36:25;;;;;;;5.80;5.30;;;21.40;99.90;;;;;;4920751;29;20470;-72
2021/07/28 03:38:52;;;;;;;5.80;5.27;;;21.40;99.90;;;;;;4920392;29;20458;-72
2021/07/28 03:41:20;;;;;;;5.83;5.33;;;21.30;99.90;;;;;;4920468;29;20839;-72
2021/07/28 03:43:46;;;;;;;6.50;5.07;;;21.30;99.90;;;;;;4920427;29;20473;-72
2021/07/28 03:46:14;;;;;;;5.90;5.40;;;21.30;99.90;;;;;;4920071;29;20497;-72
2021/07/28 03:48:43;;;;;;;5.90;4.80;;;21.30;99.90;;;;;;4920117;29;20498;-72
2021/07/28 03:51:10;;;;;;;5.20;4.77;;;21.20;99.90;;;;;;4919444;29;20458;-72
2021/07/28 03:53:36;;;;;;;5.43;4.97;;;21.20;99.90;;;;;;4919855;29;20461;-72
2021/07/28 03:56:03;;;;;;;6.00;5.40;;;21.20;99.90;;;;;;4920297;29;20469;-71
2021/07/28 03:58:31;;;;;;;5.70;5.20;;;21.20;99.90;;;;;;4919348;29;20457;-71
2021/07/28 04:00:59;;;;;;;8.10;5.37;;;21.20;99.90;;;;;;4920038;29;20780;-72
2021/07/28 04:03:26;;;;;;;4.77;4.37;;;21.20;99.90;;;;;;4919920;29;20470;-71
2021/07/28 04:05:54;;;;;;;5.60;4.90;;;21.20;99.90;;;;;;4920195;29;20478;-71
2021/07/28 04:08:23;;;;;;;5.10;4.60;;;21.20;99.90;;;;;;4919746;29;20476;-71
2021/07/28 04:10:50;;;;;;;5.70;4.90;;;21.20;99.90;;;;;;4919616;29;20461;-72
2021/07/28 04:13:17;;;;;;;5.43;4.50;;;21.30;99.90;;;;;;4919361;29;20620;-72
2021/07/28 04:15:46;;;;;;;4.73;4.33;;;21.30;99.90;;;;;;4919485;29;20449;-72
2021/07/28 04:18:13;;;;;;;5.80;5.20;;;21.20;99.90;;;;;;4919767;29;20850;-72
2021/07/28 04:20:40;;;;;;;5.30;4.80;;;21.20;99.90;;;;;;4919582;29;20473;-72
2021/07/28 04:23:06;;;;;;;5.27;4.80;;;21.30;99.90;;;;;;4919282;29;20525;-72
2021/07/28 04:25:33;;;;;;;4.97;4.47;;;21.20;99.90;;;;;;4919141;29;20465;-72
2021/07/28 04:28:00;;;;;;;5.90;4.87;;;21.20;99.90;;;;;;4919381;29;20521;-72
2021/07/28 04:30:28;;;;;;;5.90;4.60;;;21.20;99.90;;;;;;4919302;29;20792;-72
2021/07/28 04:32:56;;;;;;;4.40;4.00;;;21.20;99.90;;;;;;4919024;29;20554;-71
2021/07/28 04:35:23;;;;;;;4.63;4.23;;;21.10;99.90;;;;;;4919083;29;20466;-72
2021/07/28 04:37:49;;;;;;;5.40;4.90;;;21.10;99.90;;;;;;4919100;29;20592;-71
2021/07/28 04:40:17;;;;;;;5.17;4.40;;;21.10;99.90;;;;;;4919119;29;20461;-71
2021/07/28 04:42:48;;;;;;;4.70;4.10;;;21.10;99.90;;;;;;4919157;29;20501;-71
2021/07/28 04:45:14;;;;;;;4.60;4.20;;;21.10;99.90;;;;;;4918922;29;20450;-71
2021/07/28 04:47:41;;;;;;;4.77;4.20;;;21.10;99.90;;;;;;4918763;29;20603;-71
2021/07/28 04:50:10;;;;;;;4.67;3.73;;;21.10;99.90;;;;;;4918740;29;20469;-72
2021/07/28 04:52:37;;;;;;;5.67;4.70;;;21.10;99.90;;;;;;4919699;29;20537;-71
2021/07/28 04:55:04;;;;;;;5.67;5.17;;;21.10;99.90;;;;;;4919046;29;20469;-71
2021/07/28 04:57:31;;;;;;;4.53;4.13;;;21.10;99.90;;;;;;4918786;29;20938;-71
2021/07/28 04:59:57;;;;;;;4.60;4.20;;;21.20;99.90;;;;;;4919195;29;20469;-71
2021/07/28 05:02:25;;;;;;;4.93;4.37;;;21.20;99.90;;;;;;4919476;29;20505;-72
2021/07/28 05:04:52;;;;;;;4.93;4.43;;;21.20;99.90;;;;;;4919415;29;20457;-71
2021/07/28 05:07:20;;;;;;;5.20;4.60;;;21.20;99.90;;;;;;4918902;29;20794;-71
2021/07/28 05:09:47;;;;;;;4.70;4.30;;;21.10;99.90;;;;;;4918658;29;20850;-72
2021/07/28 05:12:13;;;;;;;6.20;5.37;;;21.10;99.90;;;;;;4918499;29;20561;-72
2021/07/28 05:14:40;;;;;;;4.77;4.33;;;21.10;99.90;;;;;;4918681;29;20481;-71
2021/07/28 05:17:07;;;;;;;9.47;4.80;;;21.10;99.90;;;;;;4922305;29;20472;-72
2021/07/28 05:19:33;;;;;;;5.43;4.40;;;21.20;99.90;;;;;;4922606;29;20471;-71
2021/07/28 05:22:00;;;;;;;6.50;4.67;;;21.20;99.90;;;;;;4922612;29;20475;-72
2021/07/28 05:24:28;;;;;;;5.70;5.07;;;21.20;99.90;;;;;;4922137;29;20835;-72
2021/07/28 05:26:55;;;;;;;5.23;4.60;;;21.10;99.90;;;;;;4922044;29;20496;-71
2021/07/28 05:29:22;;;;;;;5.13;4.63;;;21.20;99.90;;;;;;4922051;29;20465;-71
2021/07/28 05:31:49;;;;;;;5.10;4.70;;;21.20;99.90;;;;;;4922404;29;20910;-71
2021/07/28 05:34:16;;;;;;;4.77;4.37;;;21.20;99.90;;;;;;4922625;29;20457;-71
2021/07/28 05:36:42;;;;;;;5.90;4.47;;;21.20;99.90;;;;;;4922039;29;20513;-71
2021/07/28 05:39:09;;;;;;;5.60;4.73;;;21.20;99.90;;;;;;4922346;29;20465;-71
2021/07/28 05:41:37;;;;;;;6.60;5.90;;;21.20;99.90;;;;;;4922002;29;20462;-71
2021/07/28 05:44:07;;;;;;;5.80;5.07;;;21.30;99.90;;;;;;4922480;29;20525;-71
2021/07/28 05:46:35;;;;;;;5.10;4.60;;;21.30;99.90;;;;;;4921963;29;20515;-71
2021/07/28 05:49:02;;;;;;;5.27;4.77;;;21.20;99.90;;;;;;4922294;29;20497;-74
2021/07/28 05:51:29;;;;;;;4.57;4.03;;;21.20;99.90;;;;;;4922493;29;20785;-72
2021/07/28 05:53:55;;;;;;;9.17;4.97;;;21.20;99.90;;;;;;4922212;29;20482;-72
2021/07/28 05:56:22;;;;;;;4.87;4.40;;;21.20;99.90;;;;;;4922145;29;20465;-72
2021/07/28 05:58:50;;;;;;;4.77;4.33;;;21.30;99.90;;;;;;4922113;29;20467;-72
2021/07/28 06:01:17;;;;;;;4.53;4.13;;;21.30;99.90;;;;;;4922440;29;20766;-72
2021/07/28 06:03:46;;;;;;;4.80;4.40;;;21.30;99.90;;;;;;4921880;29;20461;-72
2021/07/28 06:06:13;;;;;;;5.13;4.53;;;21.40;99.90;;;;;;4922053;29;20792;-72
2021/07/28 06:08:42;;;;;;;5.17;4.60;;;21.40;99.90;;;;;;4921688;29;20499;-72
2021/07/28 06:11:13;;;;;;;5.83;4.13;;;21.50;99.90;;;;;;4921601;29;20935;-72
2021/07/28 06:13:40;;;;;;;5.37;4.17;;;21.50;99.90;;;;;;4921246;29;20882;-73
2021/07/28 06:16:08;;;;;;;5.70;4.57;;;21.60;99.90;;;;;;4921363;29;20998;-74
2021/07/28 06:18:36;;;;;;;5.40;4.37;;;21.70;99.90;;;;;;4922248;29;20544;-74
2021/07/28 06:21:03;;;;;;;4.60;4.20;;;21.70;99.90;;;;;;4921852;29;20472;-74
2021/07/28 06:23:30;;;;;;;4.57;4.13;;;21.70;99.90;;;;;;4921774;29;20462;-74
2021/07/28 06:25:57;;;;;;;5.40;3.67;;;21.70;99.90;;;;;;4922874;29;20472;-74
2021/07/28 06:28:26;;;;;;;4.23;3.60;;;21.70;99.90;;;;;;4921185;29;20477;-74
2021/07/28 06:30:53;;;;;;;4.93;4.43;;;21.80;99.90;;;;;;4922020;29;20556;-74
2021/07/28 06:33:21;;;;;;;4.93;3.93;;;21.80;99.90;;;;;;4921917;29;20457;-74
2021/07/28 06:35:48;;;;;;;4.27;3.60;;;21.80;99.90;;;;;;4921477;29;20461;-74
2021/07/28 06:38:15;;;;;;;4.17;3.77;;;21.80;99.90;;;;;;4922660;29;20505;-74
2021/07/28 06:40:45;;;;;;;3.97;3.40;;;21.80;99.90;;;;;;4925137;29;20998;-74
2021/07/28 06:43:15;;;;;;;4.23;3.70;;;21.90;99.90;;;;;;4925197;29;20526;-74
2021/07/28 06:45:42;;;;;;;6.33;3.67;;;21.90;99.90;;;;;;4925729;29;20460;-74
2021/07/28 06:48:09;;;;;;;4.47;3.37;;;22.10;99.90;;;;;;4925216;29;20529;-74
2021/07/28 06:50:37;;;;;;;3.80;3.23;;;22.10;99.90;;;;;;4926045;29;20461;-74
2021/07/28 06:53:04;;;;;;;5.83;3.17;;;22.10;99.90;;;;;;4925567;29;20469;-74
2021/07/28 06:55:34;;;;;;;4.77;4.00;;;22.10;99.90;;;;;;4925134;29;20465;-74
2021/07/28 06:58:03;;;;;;;3.70;3.40;;;22.00;99.90;;;;;;4925933;29;20465;-74
2021/07/28 07:00:32;;;;;;;4.90;3.47;;;22.00;99.90;;;;;;4926219;29;20500;-74
2021/07/28 07:02:59;;;;;;;3.63;3.33;;;22.00;99.90;;;;;;4923956;29;20462;-75
2021/07/28 07:05:26;;;;;;;4.30;3.77;;;22.00;99.90;;;;;;4924216;29;20465;-75
2021/07/28 07:07:54;;;;;;;4.97;3.80;;;21.90;99.90;;;;;;4927685;29;20493;-75
2021/07/28 07:10:21;;;;;;;3.93;3.53;;;21.80;99.90;;;;;;4927119;29;20453;-74
2021/07/28 07:12:48;;;;;;;7.93;4.17;;;21.80;99.90;;;;;;4923371;29;20588;-74
2021/07/28 07:15:16;;;;;;;4.37;3.57;;;21.80;99.90;;;;;;4924231;29;20466;-75
2021/07/28 07:17:45;;;;;;;6.33;4.00;;;21.80;99.90;;;;;;4923236;29;20949;-74
2021/07/28 07:20:13;;;;;;;4.90;3.70;;;21.70;99.90;;;;;;4924841;29;20473;-74
2021/07/28 07:22:39;;;;;;;8.13;4.30;;;21.70;99.90;;;;;;4924132;29;20462;-75
2021/07/28 07:25:09;;;;;;;4.67;4.00;;;21.70;99.90;;;;;;4922319;29;20477;-74
2021/07/28 07:27:37;;;;;;;4.80;4.40;;;21.70;99.90;;;;;;4921599;29;20795;-75
2021/07/28 07:30:05;;;;;;;6.60;5.00;;;21.70;99.90;;;;;;4921751;29;20806;-74
2021/07/28 07:32:34;;;;;;;4.60;4.20;;;21.60;99.90;;;;;;4921357;29;20786;-73
2021/07/28 07:35:00;;;;;;;4.97;4.47;;;21.60;99.90;;;;;;4921338;29;20493;-75
2021/07/28 07:37:27;;;;;;;7.27;4.70;;;21.60;99.90;;;;;;4921839;29;20457;-74
2021/07/28 07:39:54;;;;;;;5.20;4.70;;;21.50;99.90;;;;;;4919731;29;20462;-75
2021/07/28 07:42:24;;;;;;;5.03;4.10;;;21.50;99.90;;;;;;4920560;29;20588;-74
2021/07/28 07:44:53;;;;;;;6.40;4.57;;;21.50;99.90;;;;;;4921177;29;20476;-75
2021/07/28 07:47:21;;;;;;;4.87;4.37;;;21.60;99.90;;;;;;4920307;29;20481;-74
2021/07/28 07:49:47;;;;;;;4.30;3.90;;;21.70;99.90;;;;;;4921507;29;20867;-75
2021/07/28 07:52:17;;;;;;;5.13;4.03;;;21.70;99.90;;;;;;4920544;29;20922;-73
2021/07/28 07:54:44;;;;;;;4.83;4.43;;;21.80;99.90;;;;;;4920692;29;20466;-73
2021/07/28 07:57:10;;;;;;;4.10;3.70;;;21.80;99.90;;;;;;4920255;29;20468;-74
2021/07/28 07:59:38;;;;;;;4.67;4.27;;;21.80;99.90;;;;;;4921130;29;20453;-75
2021/07/28 08:02:05;;;;;;;7.20;3.83;;;21.70;99.90;;;;;;4921424;29;20676;-75
2021/07/28 08:04:32;;;;;;;4.40;4.00;;;21.80;99.90;;;;;;4922781;29;20481;-75
2021/07/28 08:06:59;;;;;;;5.00;4.50;;;21.80;99.90;;;;;;4921832;29;20823;-74
2021/07/28 08:09:27;;;;;;;4.60;4.20;;;22.00;99.90;;;;;;4922339;29;20847;-74
2021/07/28 08:11:56;;;;;;;4.80;4.40;;;22.00;99.90;;;;;;4922994;29;20465;-74
2021/07/28 08:14:23;;;;;;;5.73;4.73;;;22.00;99.90;;;;;;4922970;29;20449;-75
2021/07/28 08:16:51;;;;;;;5.13;4.63;;;22.10;99.90;;;;;;4923146;29;20469;-74
2021/07/28 08:19:20;;;;;;;4.60;4.20;;;22.20;99.90;;;;;;4923566;29;20462;-74
2021/07/28 08:21:47;;;;;;;6.30;4.47;;;22.20;99.90;;;;;;4922983;29;20498;-74
2021/07/28 08:24:14;;;;;;;4.67;4.23;;;22.20;99.90;;;;;;4922788;29;20535;-76
2021/07/28 08:26:41;;;;;;;5.17;4.10;;;22.20;99.90;;;;;;4922548;29;20847;-75
2021/07/28 08:29:10;;;;;;;4.50;4.10;;;22.20;99.90;;;;;;4922855;29;20492;-75
2021/07/28 08:31:37;;;;;;;5.30;4.80;;;22.20;99.90;;;;;;4923751;29;20472;-74
2021/07/28 08:34:08;;;;;;;5.13;4.70;;;22.20;99.90;;;;;;4923648;29;20896;-75
2021/07/28 08:36:34;;;;;;;5.10;4.60;;;22.20;99.90;;;;;;4924221;29;20922;-75
2021/07/28 08:39:01;;;;;;;6.03;4.50;;;22.30;99.90;;;;;;4923310;29;20520;-75
2021/07/28 08:41:30;;;;;;;5.43;4.93;;;22.30;99.90;;;;;;4924510;29;20461;-75
2021/07/28 08:43:59;;;;;;;6.30;4.30;;;22.30;99.90;;;;;;4922389;29;20476;-75
2021/07/28 08:46:27;;;;;;;5.63;4.90;;;22.40;99.90;;;;;;4921859;29;20477;-75
2021/07/28 08:48:54;;;;;;;6.13;4.57;;;22.40;99.90;;;;;;4923238;29;20498;-74
2021/07/28 08:51:26;;;;;;;5.43;4.93;;;22.40;99.90;;;;;;4923298;29;20851;-75
2021/07/28 08:53:53;;;;;;;5.17;4.77;;;22.30;99.90;;;;;;4923672;29;20527;-75
2021/07/28 08:56:23;;;;;;;5.77;4.93;;;22.40;99.90;;;;;;4922013;29;20469;-76
2021/07/28 08:58:50;;;;;;;7.27;5.23;;;22.40;99.90;;;;;;4922256;29;20450;-75
2021/07/28 09:01:17;;;;;;;6.50;5.57;;;22.40;99.90;;;;;;4922954;29;20465;-74
2021/07/28 09:03:45;;;;;;;5.10;4.60;;;22.30;99.90;;;;;;4923083;29;20915;-75
2021/07/28 09:06:28;;;;;;;7.50;4.20;;;22.40;99.90;;;;;;4923085;29;20520;-75
2021/07/28 09:08:58;;;;;;;8.40;5.33;;;22.60;99.90;;;;;;4921644;29;20836;-75
2021/07/28 09:11:26;;;;;;;5.07;4.57;;;22.70;99.90;;;;;;4922393;29;20450;-75
2021/07/28 09:13:55;;;;;;;5.13;4.57;;;22.80;99.90;;;;;;4921385;29;20831;-76
2021/07/28 09:16:22;;;;;;;6.93;4.37;;;22.90;99.90;;;;;;4921496;29;20501;-74
2021/07/28 09:18:50;;;;;;;4.30;4.00;;;22.90;99.90;;;;;;4921914;29;20462;-75
2021/07/28 09:21:30;;;;;;;5.87;4.27;;;22.70;99.90;;;;;;4922679;29;20476;-75
2021/07/28 09:24:08;;;;;;;4.20;3.80;;;22.70;99.90;;;;;;4923040;29;20839;-75
2021/07/28 09:26:39;;;;;;;6.67;4.00;;;22.80;99.90;;;;;;4923565;29;20481;-75
2021/07/28 09:29:09;;;;;;;4.20;3.77;;;23.00;99.90;;;;;;4922517;29;20979;-73
2021/07/28 09:31:39;;;;;;;3.83;3.53;;;23.10;99.90;;;;;;4922763;29;20534;-75
2021/07/28 09:34:29;;;;;;;4.07;3.77;;;23.20;99.90;;;;;;4921645;29;20540;-76
2021/07/28 09:36:58;;;;;;;4.03;3.70;;;23.20;99.90;;;;;;4922184;29;20465;-75
2021/07/28 09:39:26;;;;;;;4.80;4.10;;;23.30;99.90;;;;;;4921703;29;20457;-75
2021/07/28 09:41:54;;;;;;;4.53;4.13;;;23.30;99.90;;;;;;4922327;29;20465;-75
2021/07/28 09:44:25;;;;;;;4.77;4.20;;;23.40;99.90;;;;;;4921821;29;20511;-75
2021/07/28 09:47:09;;;;;;;5.77;3.90;;;23.60;99.90;;;;;;4922090;29;20814;-75
2021/07/28 09:49:37;;;;;;;4.10;3.80;;;23.70;99.90;;;;;;4921199;29;20484;-75
2021/07/28 09:52:19;;;;;;;4.30;3.90;;;23.80;99.90;;;;;;4921701;29;20464;-73
2021/07/28 09:54:46;;;;;;;4.13;3.60;;;24.00;99.90;;;;;;4920534;29;20470;-74
2021/07/28 09:57:19;;;;;;;10.23;3.27;;;24.00;99.90;;;;;;4921648;29;20465;-74
2021/07/28 09:59:51;;;;;;;5.97;3.70;;;24.00;99.90;;;;;;4921977;29;20891;-74
2021/07/28 10:02:18;;;;;;;3.97;3.00;;;24.10;99.90;;;;;;4921212;29;20489;-75
2021/07/28 10:04:48;;;;;;;3.57;3.27;;;24.10;99.90;;;;;;4922966;29;20461;-75
2021/07/28 10:07:18;;;;;;;3.80;3.30;;;24.10;99.90;;;;;;4922751;29;20446;-75
2021/07/28 10:10:09;;;;;;;3.37;3.07;;;24.10;99.90;;;;;;4921482;29;20482;-77
2021/07/28 10:12:37;;;;;;;3.60;3.13;;;24.10;99.90;;;;;;4921010;29;20493;-75
2021/07/28 10:15:07;;;;;;;3.10;2.47;;;24.10;99.90;;;;;;4922169;29;20543;-76
2021/07/28 10:17:40;;;;;;;3.17;2.77;;;24.00;99.90;;;;;;4921326;29;20465;-76
2021/07/28 10:20:10;;;;;;;3.20;3.00;;;24.00;99.90;;;;;;4920895;29;20445;-76
2021/07/28 10:22:39;;;;;;;3.23;2.93;;;24.00;99.90;;;;;;4921734;29;20537;-77
2021/07/28 10:25:13;;;;;;;3.47;3.10;;;24.00;99.90;;;;;;4922680;29;20465;-77
2021/07/28 10:27:41;;;;;;;3.70;3.10;;;24.00;99.90;;;;;;4922301;29;20479;-77
2021/07/28 10:30:14;;;;;;;6.37;4.40;;;24.00;99.90;;;;;;4922788;29;20485;-75
2021/07/28 10:32:41;;;;;;;4.50;3.13;;;24.20;99.90;;;;;;4924462;29;20461;-77
2021/07/28 10:35:24;;;;;;;3.17;2.90;;;24.30;99.90;;;;;;4921693;29;20470;-76
2021/07/28 10:37:53;;;;;;;8.30;3.13;;;24.50;99.90;;;;;;4923004;29;20497;-77
2021/07/28 10:40:58;;;;;;;3.33;2.37;;;24.50;99.90;;;;;;4928068;29;20478;-78
2021/07/28 10:43:25;;;;;;;3.17;2.83;;;24.50;99.90;;;;;;4921832;29;20445;-77
2021/07/28 10:45:54;;;;;;;3.30;2.80;;;24.40;99.90;;;;;;4921544;29;20473;-77
2021/07/28 10:48:49;;;;;;;3.13;2.83;;;24.40;99.90;;;;;;4922273;29;20481;-77
2021/07/28 10:51:53;;;;;;;3.47;3.17;;;24.50;99.90;;;;;;4921736;29;20462;-77
2021/07/28 10:55:10;;;;;;;4.37;3.70;;;24.60;99.90;;;;;;4921894;29;20461;-77
2021/07/28 10:58:23;;;;;;;4.60;3.70;;;24.70;99.90;;;;;;4921607;29;20458;-77
2021/07/28 11:01:08;;;;;;;3.03;2.80;;;24.70;99.90;;;;;;4920864;29;20923;-76
2021/07/28 11:03:38;;;;;;;3.50;3.00;;;24.60;99.90;;;;;;4920875;29;20549;-78
2021/07/28 11:06:26;;;;;;;4.17;3.30;;;24.60;99.90;;;;;;4920727;29;20464;-76
2021/07/28 11:08:54;;;;;;;3.37;2.90;;;24.60;99.90;;;;;;4917967;29;20485;-77
2021/07/28 11:11:31;;;;;;;2.90;2.70;;;24.70;99.90;;;;;;4924718;29;20475;-77
2021/07/28 11:14:02;;;;;;;3.03;2.83;;;24.70;99.90;;;;;;4924951;29;20537;-77
2021/07/28 11:16:29;;;;;;;3.50;3.20;;;24.80;99.90;;;;;;4923668;29;20497;-78
2021/07/28 11:18:56;;;;;;;3.60;2.90;;;24.90;99.90;;;;;;4924375;29;20466;-76
2021/07/28 11:21:26;;;;;;;3.50;3.20;;;24.90;99.90;;;;;;4926311;29;20521;-77
2021/07/28 11:23:55;;;;;;;4.43;3.43;;;25.00;99.90;;;;;;4924401;29;20453;-78
2021/07/28 11:26:27;;;;;;;3.10;2.90;;;25.00;99.90;;;;;;4923624;29;20806;-77
2021/07/28 11:28:58;;;;;;;5.47;3.30;;;25.10;99.90;;;;;;4922482;29;21000;-78
2021/07/28 11:31:33;;;;;;;3.90;3.50;;;25.30;99.90;;;;;;4921540;29;20464;-76
2021/07/28 11:34:10;;;;;;;3.90;3.33;;;25.30;99.90;;;;;;4923779;29;20508;-76
2021/07/28 11:36:41;;;;;;;3.00;2.80;;;25.30;99.90;;;;;;4921592;29;20445;-77
2021/07/28 11:39:10;;;;;;;4.40;3.47;;;25.20;99.90;;;;;;4923778;29;20454;-77
2021/07/28 11:41:37;;;;;;;3.30;3.00;;;25.20;99.90;;;;;;4920730;29;20469;-77
2021/07/28 11:44:05;;;;;;;4.00;3.40;;;25.30;99.90;;;;;;4920022;29;20465;-77
2021/07/28 11:46:32;;;;;;;3.87;3.43;;;25.40;99.90;;;;;;4921281;29;20906;-76
2021/07/28 11:49:04;;;;;;;3.40;3.07;;;25.50;99.90;;;;;;4922814;29;20485;-76
2021/07/28 11:51:32;;;;;;;3.77;3.47;;;25.60;99.90;;;;;;4924703;29;20531;-77
2021/07/28 11:54:08;;;;;;;3.37;3.00;;;25.20;99.90;;;;;;4925004;29;20560;-78
2021/07/28 11:56:35;;;;;;;3.10;2.80;;;25.00;99.90;;;;;;4922011;29;20441;-77
2021/07/28 11:59:02;;;;;;;4.30;3.33;;;25.00;99.90;;;;;;4925721;29;20462;-78
2021/07/28 12:01:31;;;;;;;3.73;3.33;;;25.00;99.90;;;;;;4926630;29;20471;-77
2021/07/28 12:04:02;;;;;;;4.30;3.27;;;25.20;99.90;;;;;;4927639;29;20462;-79
2021/07/28 12:06:31;;;;;;;3.70;2.83;;;25.30;99.90;;;;;;4928045;29;20454;-78
2021/07/28 12:09:09;;;;;;;2.73;2.53;;;25.50;99.90;;;;;;4928151;29;20853;-79
2021/07/28 12:11:49;;;;;;;4.73;2.90;;;25.40;99.90;;;;;;4930028;29;20466;-78
2021/07/28 12:14:27;;;;;;;3.03;2.80;;;25.50;99.90;;;;;;4926191;29;20449;-80
2021/07/28 12:16:56;;;;;;;3.60;3.30;;;25.60;99.90;;;;;;4923674;29;20471;-79
2021/07/28 12:19:24;;;;;;;5.37;3.20;;;25.60;99.90;;;;;;4925893;29;20453;-79
2021/07/28 12:22:01;;;;;;;2.50;2.30;;;25.60;99.90;;;;;;4933522;29;20487;-78
2021/07/28 12:24:42;;;;;;;2.93;2.73;;;25.60;99.90;;;;;;4933059;29;20446;-77
2021/07/28 12:27:37;;;;;;;3.40;3.10;;;25.50;99.90;;;;;;4931520;29;20442;-78
2021/07/28 12:30:07;;;;;;;3.47;3.17;;;25.60;99.90;;;;;;4921084;29;20485;-79
2021/07/28 12:32:38;;;;;;;3.53;3.20;;;25.60;99.90;;;;;;4933085;29;20466;-78
2021/07/28 12:35:07;;;;;;;5.47;2.53;;;25.60;99.90;;;;;;4933841;29;20454;-79
2021/07/28 12:37:34;;;;;;;3.20;2.90;;;25.70;99.90;;;;;;4933485;29;20457;-77
2021/07/28 12:40:04;;;;;;;3.23;2.70;;;25.60;99.90;;;;;;4932207;29;20465;-78
2021/07/28 12:42:31;;;;;;;3.37;3.07;;;25.50;99.90;;;;;;4932694;29;20465;-79
2021/07/28 12:45:01;;;;;;;3.03;2.70;;;25.60;99.90;;;;;;4933250;29;20473;-78
2021/07/28 12:47:28;;;;;;;3.57;3.27;;;25.70;99.90;;;;;;4932463;29;20454;-77
2021/07/28 12:49:56;;;;;;;3.70;3.30;;;25.60;99.90;;;;;;4932475;29;20486;-78
2021/07/28 12:52:22;;;;;;;3.40;2.80;;;25.50;99.90;;;;;;4931707;29;20474;-78
2021/07/28 12:54:51;;;;;;;3.07;2.87;;;25.40;99.90;;;;;;4934341;29;20504;-79
2021/07/28 12:57:18;;;;;;;6.27;2.87;;;25.40;99.90;;;;;;4935080;29;20469;-79
2021/07/28 12:59:44;;;;;;;3.53;2.83;;;25.60;99.90;;;;;;4933417;29;20457;-79
2021/07/28 13:02:11;;;;;;;3.07;2.77;;;25.60;99.90;;;;;;4931687;29;20462;-78